createdAt,value
2018-09-19T00:00:05.358Z,101092.13
2018-09-19T00:02:34.294Z,101084.27
2018-09-19T00:05:03.161Z,101084.44
2018-09-19T00:07:32.184Z,101090.58
2018-09-19T00:10:01.164Z,101081.34
2018-09-19T00:12:30.139Z,101083.53
2018-09-19T00:14:59.342Z,101089.96
2018-09-19T00:17:28.414Z,101082.78
2018-09-19T00:19:57.355Z,101082.38
2018-09-19T00:22:26.489Z,101083.86
2018-09-19T00:24:59.645Z,101089.39
2018-09-19T00:27:28.566Z,101082.86
2018-09-19T00:29:57.502Z,101086.45
2018-09-19T00:32:26.474Z,101095.95
2018-09-19T00:34:55.343Z,101100.81
2018-09-19T00:37:24.242Z,101102.77
2018-09-19T00:39:53.112Z,101100.53
2018-09-19T00:42:22.031Z,101090.98
2018-09-19T00:44:50.942Z,101099.02
2018-09-19T00:47:19.911Z,101101.05
2018-09-19T00:49:48.807Z,101098.81
2018-09-19T00:52:17.689Z,101103.78
2018-09-19T00:54:46.620Z,101106.21
2018-09-19T00:57:15.810Z,101107.34
2018-09-19T00:59:44.766Z,101105.98
2018-09-19T01:02:13.740Z,101098.15
2018-09-19T01:04:42.662Z,101102.49
2018-09-19T01:07:11.699Z,101102.41
2018-09-19T01:09:40.750Z,101106.19
2018-09-19T01:12:09.676Z,101104.31
2018-09-19T01:14:38.607Z,101106.07
2018-09-19T01:17:07.738Z,101112.86
2018-09-19T01:19:36.685Z,101121.97
2018-09-19T01:22:05.565Z,101122.27
2018-09-19T01:24:34.574Z,101120.22
2018-09-19T01:27:03.556Z,101121.61
2018-09-19T01:29:33.293Z,101117.88
2018-09-19T01:32:02.330Z,101120.27
2018-09-19T01:34:31.285Z,101114.97
2018-09-19T01:37:00.187Z,101117.89
2018-09-19T01:39:29.120Z,101122.38
2018-09-19T01:41:58.327Z,101124.22
2018-09-19T01:44:27.236Z,101128.87
2018-09-19T01:46:56.252Z,101122.55
2018-09-19T01:49:25.515Z,101120.00
2018-09-19T01:51:55.192Z,101124.70
2018-09-19T01:54:25.218Z,101140.77
2018-09-19T01:56:54.661Z,101142.52
2018-09-19T01:59:23.544Z,101151.52
2018-09-19T02:01:52.541Z,101156.34
2018-09-19T02:04:21.453Z,101157.22
2018-09-19T02:06:50.366Z,101150.08
2018-09-19T02:09:19.251Z,101155.84
2018-09-19T02:11:48.859Z,101167.56
2018-09-19T02:14:17.901Z,101172.50
2018-09-19T02:16:46.784Z,101169.52
2018-09-19T02:19:15.645Z,101168.33
2018-09-19T02:21:44.665Z,101174.05
2018-09-19T02:24:13.676Z,101169.69
2018-09-19T02:26:42.776Z,101169.68
2018-09-19T02:29:11.672Z,101168.10
2018-09-19T02:31:40.591Z,101168.95
2018-09-19T02:34:09.715Z,101163.78
2018-09-19T02:36:38.595Z,101172.78
2018-09-19T02:39:09.658Z,101171.17
2018-09-19T02:41:38.717Z,101173.58
2018-09-19T02:44:07.711Z,101173.27
2018-09-19T02:46:36.702Z,101171.92
2018-09-19T02:49:05.599Z,101172.25
2018-09-19T02:51:34.544Z,101175.17
2018-09-19T02:54:03.450Z,101177.36
2018-09-19T02:56:32.389Z,101179.59
2018-09-19T02:59:01.580Z,101167.59
2018-09-19T03:01:30.546Z,101175.73
2018-09-19T03:03:59.548Z,101179.32
2018-09-19T03:06:28.478Z,101178.22
2018-09-19T03:08:57.399Z,101178.77
2018-09-19T03:11:26.450Z,101177.69
2018-09-19T03:13:55.363Z,101186.14
2018-09-19T03:16:24.376Z,101176.31
2018-09-19T03:18:53.381Z,101179.88
2018-09-19T03:21:22.309Z,101176.66
2018-09-19T03:23:51.206Z,101183.13
2018-09-19T03:26:20.122Z,101188.58
2018-09-19T03:28:49.326Z,101186.88
2018-09-19T03:31:18.272Z,101194.21
2018-09-19T03:33:47.140Z,101187.48
2018-09-19T03:36:16.236Z,101194.56
2018-09-19T03:38:45.128Z,101201.89
2018-09-19T03:41:14.095Z,101200.80
2018-09-19T03:43:43.058Z,101205.67
2018-09-19T03:46:12.015Z,101205.67
2018-09-19T03:48:40.922Z,101204.53
2018-09-19T03:51:09.818Z,101208.03
2018-09-19T03:53:38.705Z,101209.41
2018-09-19T03:56:07.881Z,101202.61
2018-09-19T03:58:36.920Z,101203.77
2018-09-19T04:01:05.830Z,101196.34
2018-09-19T04:03:34.727Z,101198.84
2018-09-19T04:06:03.659Z,101208.51
2018-09-19T04:08:32.540Z,101203.33
2018-09-19T04:11:01.517Z,101208.60
2018-09-19T04:13:30.417Z,101206.89
2018-09-19T04:15:59.280Z,101210.69
2018-09-19T04:18:28.257Z,101203.94
2018-09-19T04:20:57.159Z,101212.04
2018-09-19T04:23:26.029Z,101212.63
2018-09-19T04:25:54.912Z,101207.11
2018-09-19T04:28:23.786Z,101206.07
2018-09-19T04:30:52.923Z,101199.61
2018-09-19T04:33:21.815Z,101202.85
2018-09-19T04:35:50.764Z,101206.03
2018-09-19T04:38:19.762Z,101213.05
2018-09-19T04:40:48.661Z,101210.66
2018-09-19T04:43:17.545Z,101215.83
2018-09-19T04:45:46.483Z,101212.78
2018-09-19T04:48:15.804Z,101219.03
2018-09-19T04:50:44.685Z,101215.27
2018-09-19T04:53:13.546Z,101218.30
2018-09-19T04:55:42.465Z,101217.95
2018-09-19T04:58:11.387Z,101221.03
2018-09-19T05:00:40.327Z,101218.19
2018-09-19T05:03:09.203Z,101230.70
2018-09-19T05:05:38.375Z,101233.71
2018-09-19T05:08:07.345Z,101226.27
2018-09-19T05:10:36.345Z,101227.84
2018-09-19T05:13:05.400Z,101232.51
2018-09-19T05:15:34.333Z,101238.80
2018-09-19T05:18:03.238Z,101232.84
2018-09-19T05:20:32.120Z,101235.18
2018-09-19T05:23:01.000Z,101241.20
2018-09-19T05:25:30.023Z,101240.98
2018-09-19T05:27:58.917Z,101254.09
2018-09-19T05:30:27.925Z,101248.03
2018-09-19T05:32:56.808Z,101253.17
2018-09-19T05:35:25.745Z,101258.15
2018-09-19T05:37:54.724Z,101263.57
2018-09-19T05:40:23.613Z,101270.44
2018-09-19T05:42:52.506Z,101271.05
2018-09-19T05:45:21.711Z,101268.09
2018-09-19T05:47:50.654Z,101273.02
2018-09-19T05:50:19.572Z,101265.45
2018-09-19T05:52:48.486Z,101267.83
2018-09-19T05:55:17.360Z,101271.41
2018-09-19T05:57:46.278Z,101272.01
2018-09-19T06:00:15.259Z,101269.52
2018-09-19T06:02:44.113Z,101276.09
2018-09-19T06:05:12.982Z,101270.38
2018-09-19T06:07:41.955Z,101266.31
2018-09-19T06:10:10.842Z,101264.97
2018-09-19T06:12:39.799Z,101268.02
2018-09-19T06:15:08.685Z,101269.62
2018-09-19T06:17:37.566Z,101262.55
2018-09-19T06:20:06.449Z,101263.38
2018-09-19T06:22:35.367Z,101266.33
2018-09-19T06:25:04.366Z,101272.06
2018-09-19T06:27:33.357Z,101267.73
2018-09-19T06:30:02.285Z,101262.58
2018-09-19T06:32:31.330Z,101262.61
2018-09-19T06:35:00.277Z,101259.33
2018-09-19T06:37:29.267Z,101252.30
2018-09-19T06:39:58.331Z,101265.39
2018-09-19T06:42:27.167Z,101267.85
2018-09-19T06:44:56.148Z,101261.33
2018-09-19T06:47:25.397Z,101265.94
2018-09-19T06:49:54.619Z,101261.60
2018-09-19T06:52:23.739Z,101269.74
2018-09-19T06:54:52.671Z,101263.50
2018-09-19T06:57:21.593Z,101262.16
2018-09-19T06:59:50.877Z,101259.18
2018-09-19T07:02:19.747Z,101263.00
2018-09-19T07:04:48.706Z,101261.91
2018-09-19T07:07:17.691Z,101269.00
2018-09-19T07:09:46.611Z,101260.29
2018-09-19T07:12:15.502Z,101258.66
2018-09-19T07:14:44.387Z,101264.92
2018-09-19T07:17:13.305Z,101256.20
2018-09-19T07:19:42.201Z,101255.13
2018-09-19T07:22:11.158Z,101258.64
2018-09-19T07:24:40.044Z,101255.14
2018-09-19T07:27:08.930Z,101249.70
2018-09-19T07:29:37.908Z,101257.84
2018-09-19T07:32:07.057Z,101251.05
2018-09-19T07:34:36.837Z,101249.38
2018-09-19T07:37:05.761Z,101243.68
2018-09-19T07:39:34.687Z,101252.12
2018-09-19T07:42:03.850Z,101247.73
2018-09-19T07:44:32.743Z,101242.28
2018-09-19T07:47:01.648Z,101239.53
2018-09-19T07:49:30.576Z,101236.03
2018-09-19T07:51:59.455Z,101243.59
2018-09-19T07:54:28.421Z,101240.58
2018-09-19T07:56:57.333Z,101245.47
2018-09-19T07:59:26.180Z,101253.08
2018-09-19T08:01:55.228Z,101254.39
2018-09-19T08:04:24.138Z,101256.30
2018-09-19T08:06:53.028Z,101263.36
2018-09-19T08:09:22.149Z,101262.54
2018-09-19T08:11:51.070Z,101260.81
2018-09-19T08:14:19.948Z,101251.22
2018-09-19T08:16:48.849Z,101251.23
2018-09-19T08:19:17.732Z,101259.85
2018-09-19T08:21:46.637Z,101252.75
2018-09-19T08:24:15.520Z,101258.39
2018-09-19T08:26:44.761Z,101265.27
2018-09-19T08:29:13.609Z,101254.86
2018-09-19T08:31:42.519Z,101252.48
2018-09-19T08:34:11.574Z,101248.28
2018-09-19T08:36:40.523Z,101252.27
2018-09-19T08:39:10.398Z,101260.41
2018-09-19T08:41:39.322Z,101262.20
2018-09-19T08:44:08.253Z,101258.67
2018-09-19T08:46:37.162Z,101264.92
2018-09-19T08:49:06.121Z,101262.64
2018-09-19T08:51:35.044Z,101264.67
2018-09-19T08:54:03.951Z,101275.25
2018-09-19T08:56:32.851Z,101270.13
2018-09-19T08:59:01.775Z,101271.73
2018-09-19T09:01:30.691Z,101274.14
2018-09-19T09:03:59.597Z,101276.86
2018-09-19T09:06:28.659Z,101281.09
2018-09-19T09:08:57.570Z,101276.16
2018-09-19T09:11:26.439Z,101270.34
2018-09-19T09:13:55.380Z,101265.38
2018-09-19T09:16:24.259Z,101270.29
2018-09-19T09:18:53.397Z,101271.80
2018-09-19T09:21:22.263Z,101275.33
2018-09-19T09:23:51.159Z,101267.87
2018-09-19T09:26:20.107Z,101272.67
2018-09-19T09:28:48.970Z,101270.55
2018-09-19T09:31:17.910Z,101269.50
2018-09-19T09:33:46.718Z,101264.50
2018-09-19T09:36:15.620Z,101261.08
2018-09-19T09:38:44.522Z,101271.83
2018-09-19T09:41:13.456Z,101264.47
2018-09-19T09:43:42.422Z,101266.44
2018-09-19T09:46:11.551Z,101262.31
2018-09-19T09:48:40.344Z,101253.94
2018-09-19T09:51:09.223Z,101260.27
2018-09-19T09:53:38.147Z,101263.94
2018-09-19T09:56:07.267Z,101265.55
2018-09-19T09:58:36.266Z,101259.87
2018-09-19T10:01:05.123Z,101264.51
2018-09-19T10:03:34.027Z,101259.00
2018-09-19T10:06:02.898Z,101255.81
2018-09-19T10:08:31.782Z,101256.75
2018-09-19T10:11:00.677Z,101256.79
2018-09-19T10:13:29.556Z,101256.59
2018-09-19T10:15:58.483Z,101260.30
2018-09-19T10:18:27.394Z,101257.95
2018-09-19T10:20:56.274Z,101245.45
2018-09-19T10:23:25.186Z,101243.04
2018-09-19T10:25:54.267Z,101239.98
2018-09-19T10:28:23.207Z,101238.48
2018-09-19T10:30:52.084Z,101246.87
2018-09-19T10:33:21.275Z,101246.73
2018-09-19T10:35:50.186Z,101241.00
2018-09-19T10:38:19.131Z,101227.06
2018-09-19T10:40:48.270Z,101229.58
2018-09-19T10:43:17.179Z,101221.36
2018-09-19T10:45:46.117Z,101212.89
2018-09-19T10:48:15.210Z,101209.32
2018-09-19T10:50:44.091Z,101211.22
2018-09-19T10:53:12.975Z,101213.64
2018-09-19T10:55:41.885Z,101223.89
2018-09-19T10:58:10.815Z,101215.80
2018-09-19T11:00:39.686Z,101225.39
2018-09-19T11:03:08.604Z,101230.48
2018-09-19T11:05:37.501Z,101230.66
2018-09-19T11:08:06.426Z,101218.70
2018-09-19T11:10:35.431Z,101212.40
2018-09-19T11:13:04.416Z,101202.55
2018-09-19T11:15:33.814Z,101186.94
2018-09-19T11:18:02.738Z,101192.45
2018-09-19T11:20:31.705Z,101190.45
2018-09-19T11:23:00.885Z,101181.14
2018-09-19T11:25:29.752Z,101175.59
2018-09-19T11:27:58.663Z,101168.93
2018-09-19T11:30:27.892Z,101166.38
2018-09-19T11:32:56.750Z,101159.97
2018-09-19T11:35:25.617Z,101168.30
2018-09-19T11:37:54.744Z,101175.40
2018-09-19T11:40:23.643Z,101170.64
2018-09-19T11:42:52.685Z,101182.32
2018-09-19T11:45:21.670Z,101184.02
2018-09-19T11:47:50.588Z,101195.88
2018-09-19T11:50:19.558Z,101192.19
2018-09-19T11:52:48.487Z,101186.72
2018-09-19T11:55:17.399Z,101176.61
2018-09-19T11:57:46.373Z,101169.61
2018-09-19T12:00:15.244Z,101171.19
2018-09-19T12:02:44.131Z,101168.69
2018-09-19T12:05:13.072Z,101164.44
2018-09-19T12:07:41.957Z,101161.31
2018-09-19T12:10:11.796Z,101154.44
2018-09-19T12:12:41.905Z,101152.30
2018-09-19T12:15:10.849Z,101141.86
2018-09-19T12:17:40.615Z,101141.87
2018-09-19T12:20:09.533Z,101132.98
2018-09-19T12:22:38.377Z,101133.14
2018-09-19T12:25:07.433Z,101140.48
2018-09-19T12:28:47.200Z,101118.73
2018-09-19T12:31:16.095Z,101107.95
2018-09-19T12:33:45.016Z,101106.73
2018-09-19T12:36:13.896Z,101102.37
2018-09-19T12:38:42.847Z,101103.36
2018-09-19T12:41:11.745Z,101090.91
2018-09-19T12:43:40.657Z,101092.85
2018-09-19T12:46:09.564Z,101092.99
2018-09-19T12:48:39.041Z,101087.90
2018-09-19T12:51:09.779Z,101085.36
2018-09-19T12:53:43.711Z,101082.66
2018-09-19T12:56:25.096Z,101082.32
2018-09-19T12:58:53.992Z,101076.83
2018-09-19T13:01:22.891Z,101087.44
2018-09-19T13:03:51.815Z,101071.36
2018-09-19T13:06:21.036Z,101073.36
2018-09-19T13:08:49.932Z,101072.17
2018-09-19T13:11:18.816Z,101070.70
2018-09-19T13:13:47.838Z,101073.44
2018-09-19T13:16:16.698Z,101060.22
2018-09-19T13:18:45.638Z,101058.44
2018-09-19T13:21:14.503Z,101054.73
2018-09-19T13:23:43.386Z,101061.91
2018-09-19T13:26:12.279Z,101062.35
2018-09-19T13:28:41.170Z,101062.20
2018-09-19T13:31:10.065Z,101062.27
2018-09-19T13:33:38.984Z,101055.69
2018-09-19T13:36:07.939Z,101055.37
2018-09-19T13:38:36.920Z,101057.31
2018-09-19T13:41:05.897Z,101055.77
2018-09-19T13:43:34.819Z,101041.16
2018-09-19T13:46:04.011Z,101054.55
2018-09-19T13:48:32.898Z,101048.95
2018-09-19T13:51:18.774Z,101051.31
2018-09-19T13:53:47.654Z,101046.20
2018-09-19T13:56:16.577Z,101054.83
2018-09-19T13:58:45.585Z,101041.03
2018-09-19T14:01:14.448Z,101049.36
2018-09-19T14:03:43.506Z,101047.73
2018-09-19T14:06:12.402Z,101049.92
2018-09-19T14:08:41.311Z,101044.32
2018-09-19T14:11:11.816Z,101033.91
2018-09-19T14:13:41.265Z,101031.83
2018-09-19T14:16:10.203Z,101038.50
2018-09-19T14:18:39.098Z,101043.80
2018-09-19T14:21:08.019Z,101040.55
2018-09-19T14:23:36.908Z,101038.97
2018-09-19T14:26:05.857Z,101044.09
2018-09-19T14:28:34.994Z,101036.95
2018-09-19T14:31:03.877Z,101033.16
2018-09-19T14:33:32.779Z,101023.23
2018-09-19T14:36:01.877Z,101025.60
2018-09-19T14:38:30.754Z,101026.33
2018-09-19T14:40:59.760Z,101020.39
2018-09-19T14:43:28.655Z,101022.00
2018-09-19T14:45:57.598Z,101032.20
2018-09-19T14:48:26.653Z,101025.90
2018-09-19T14:50:55.548Z,101022.44
2018-09-19T14:58:55.477Z,101006.85
2018-09-19T15:01:24.352Z,101008.23
2018-09-19T15:03:53.225Z,101009.18
2018-09-19T15:06:22.103Z,100993.80
2018-09-19T15:08:50.987Z,100998.39
2018-09-19T15:11:19.878Z,100996.30
2018-09-19T15:13:48.798Z,100995.55
2018-09-19T15:16:17.695Z,101002.53
2018-09-19T15:18:46.714Z,101002.88
2018-09-19T15:21:15.581Z,101001.11
2018-09-19T15:23:44.484Z,101000.27
2018-09-19T15:26:13.405Z,100997.25
2018-09-19T15:28:42.309Z,101007.25
2018-09-19T15:31:11.190Z,100999.34
2018-09-19T15:33:40.114Z,100997.64
2018-09-19T15:36:09.070Z,100990.43
2018-09-19T15:38:37.947Z,100993.83
2018-09-19T15:41:06.941Z,100989.31
2018-09-19T15:43:36.454Z,100991.38
2018-09-19T15:46:05.332Z,100986.07
2018-09-19T15:48:34.365Z,100990.53
2018-09-19T15:51:03.208Z,100983.67
2018-09-19T15:53:32.710Z,100976.27
2018-09-19T15:56:02.645Z,100971.16
2018-09-19T15:58:31.524Z,100969.09
2018-09-19T16:01:00.576Z,100970.50
2018-09-19T16:03:29.501Z,100968.47
2018-09-19T16:05:58.480Z,100979.81
2018-09-19T16:08:27.360Z,100975.74
2018-09-19T16:10:56.240Z,100970.37
2018-09-19T16:13:25.163Z,100969.67
2018-09-19T16:15:54.151Z,100972.66
2018-09-19T16:18:23.072Z,100979.44
2018-09-19T16:20:52.103Z,100971.74
2018-09-19T16:23:20.953Z,100973.37
2018-09-19T16:25:50.711Z,100974.19
2018-09-19T16:28:19.636Z,100978.55
2018-09-19T16:30:48.812Z,100977.56
2018-09-19T16:33:17.706Z,100980.04
2018-09-19T16:35:46.647Z,100979.63
2018-09-19T16:38:15.864Z,100986.52
2018-09-19T16:40:44.755Z,100987.02
2018-09-19T16:43:13.649Z,100980.09
2018-09-19T16:45:42.934Z,100988.84
2018-09-19T16:48:11.804Z,100999.77
2018-09-19T16:50:40.688Z,100997.88
2018-09-19T16:53:09.598Z,100997.78
2018-09-19T16:55:38.512Z,100997.41
2018-09-19T16:58:07.664Z,101001.92
2018-09-19T17:00:36.584Z,100997.36
2018-09-19T17:03:05.538Z,100996.36
2018-09-19T17:05:34.836Z,100998.33
2018-09-19T17:08:03.740Z,100996.02
2018-09-19T17:10:32.635Z,100994.05
2018-09-19T17:13:01.578Z,101004.14
2018-09-19T17:15:30.509Z,101003.12
2018-09-19T17:18:00.527Z,101007.06
2018-09-19T17:20:30.238Z,101011.45
2018-09-19T17:22:59.251Z,101007.50
2018-09-19T17:25:28.179Z,101013.47
2018-09-19T17:27:57.177Z,101018.26
2018-09-19T17:30:26.378Z,101018.11
2018-09-19T17:32:55.258Z,101019.95
2018-09-19T17:35:24.156Z,101020.77
2018-09-19T17:37:53.631Z,101020.20
2018-09-19T17:40:22.536Z,101025.22
2018-09-19T17:42:51.401Z,101029.31
2018-09-19T17:45:20.529Z,101027.63
2018-09-19T17:47:49.490Z,101030.23
2018-09-19T17:50:18.371Z,101028.50
2018-09-19T17:52:47.315Z,101032.43
2018-09-19T17:55:16.224Z,101035.73
2018-09-19T17:57:45.155Z,101039.17
2018-09-19T18:00:14.035Z,101042.27
2018-09-19T18:02:43.217Z,101036.42
2018-09-19T18:05:12.129Z,101043.45
2018-09-19T18:07:41.035Z,101043.52
2018-09-19T18:10:09.960Z,101041.97
2018-09-19T18:12:38.871Z,101045.54
2018-09-19T18:15:07.820Z,101038.17
2018-09-19T18:17:36.700Z,101039.77
2018-09-19T18:20:05.648Z,101046.70
2018-09-19T18:22:34.677Z,101044.23
2018-09-19T18:25:03.653Z,101047.20
2018-09-19T18:27:32.617Z,101056.25
2018-09-19T18:30:01.472Z,101052.45
2018-09-19T18:32:30.426Z,101057.69
2018-09-19T18:34:59.315Z,101058.04
2018-09-19T18:37:28.208Z,101059.58
2018-09-19T18:39:57.260Z,101058.39
2018-09-19T18:42:26.143Z,101061.98
2018-09-19T18:44:55.030Z,101066.78
2018-09-19T18:47:23.955Z,101065.14
2018-09-19T18:49:52.836Z,101069.52
2018-09-19T18:52:21.768Z,101067.44
2018-09-19T18:54:50.650Z,101068.11
2018-09-19T18:57:19.518Z,101069.83
2018-09-19T18:59:48.444Z,101076.05
2018-09-19T19:02:17.321Z,101074.33
2018-09-19T19:04:46.217Z,101077.98
2018-09-19T19:07:15.091Z,101074.05
2018-09-19T19:09:43.955Z,101077.98
2018-09-19T19:12:12.877Z,101075.88
2018-09-19T19:14:41.768Z,101080.30
2018-09-19T19:17:10.632Z,101082.97
2018-09-19T19:19:39.603Z,101086.91
2018-09-19T19:22:08.466Z,101096.69
2018-09-19T19:24:37.474Z,101090.33
2018-09-19T19:27:05.997Z,101099.31
2018-09-19T19:29:34.912Z,101108.75
2018-09-19T19:32:03.842Z,101104.48
2018-09-19T19:34:32.718Z,101110.33
2018-09-19T19:37:01.867Z,101121.27
2018-09-19T19:39:30.788Z,101113.71
2018-09-19T19:41:59.773Z,101120.18
2018-09-19T19:44:28.684Z,101121.22
2018-09-19T19:46:57.582Z,101123.66
2018-09-19T19:49:26.460Z,101125.46
2018-09-19T19:51:55.407Z,101128.17
2018-09-19T19:54:24.332Z,101128.58
2018-09-19T19:56:53.220Z,101134.14
2018-09-19T19:59:22.467Z,101129.16
2018-09-19T20:01:51.298Z,101132.78
2018-09-19T20:04:20.207Z,101134.69
2018-09-19T20:06:49.226Z,101137.94
2018-09-19T20:09:18.134Z,101144.13
2018-09-19T20:11:47.419Z,101139.02
2018-09-19T20:14:16.378Z,101141.16
2018-09-19T20:16:45.437Z,101143.94
2018-09-19T20:19:14.363Z,101146.93
2018-09-19T20:21:43.474Z,101146.73
2018-09-19T20:24:12.370Z,101159.19
2018-09-19T20:26:41.344Z,101160.86
2018-09-19T20:29:10.276Z,101156.69
2018-09-19T20:31:39.215Z,101160.70
2018-09-19T20:34:08.217Z,101166.23
2018-09-19T20:36:37.472Z,101160.84
2018-09-19T20:39:08.454Z,101161.33
2018-09-19T20:41:37.344Z,101161.47
2018-09-19T20:44:06.289Z,101166.94
2018-09-19T20:46:35.232Z,101168.79
2018-09-19T20:49:04.157Z,101170.77
2018-09-19T20:51:33.078Z,101168.66
2018-09-19T20:54:01.979Z,101174.96
2018-09-19T20:56:30.884Z,101181.23
2018-09-19T20:58:59.838Z,101179.94
2018-09-19T21:01:28.735Z,101184.76
2018-09-19T21:03:57.644Z,101184.05
2018-09-19T21:06:26.537Z,101183.95
2018-09-19T21:08:55.436Z,101189.66
2018-09-19T21:11:24.307Z,101193.11
2018-09-19T21:13:53.396Z,101182.63
2018-09-19T21:16:22.367Z,101185.45
2018-09-19T21:18:51.325Z,101186.27
2018-09-19T21:21:20.315Z,101192.20
2018-09-19T21:23:49.281Z,101192.78
2018-09-19T21:26:18.157Z,101189.80
2018-09-19T21:28:47.139Z,101192.94
2018-09-19T21:31:16.063Z,101196.43
2018-09-19T21:33:44.994Z,101190.45
2018-09-19T21:36:13.954Z,101192.02
2018-09-19T21:38:42.853Z,101195.63
2018-09-19T21:41:12.188Z,101191.11
2018-09-19T21:43:41.099Z,101192.53
2018-09-19T21:46:10.234Z,101195.71
2018-09-19T21:48:39.241Z,101192.56
2018-09-19T21:51:08.090Z,101195.39
2018-09-19T21:53:36.990Z,101198.86
2018-09-19T21:56:06.043Z,101200.06
2018-09-19T21:58:35.232Z,101197.41
2018-09-19T22:01:08.847Z,101198.56
2018-09-19T22:03:39.580Z,101204.53
2018-09-19T22:06:08.535Z,101204.36
2018-09-19T22:08:38.294Z,101205.69
2018-09-19T22:11:07.373Z,101198.76
2018-09-19T22:13:36.301Z,101195.91
2018-09-19T22:16:05.301Z,101195.43
2018-09-19T22:18:34.557Z,101197.53
2018-09-19T22:21:03.774Z,101199.32
2018-09-19T22:23:32.673Z,101196.34
2018-09-19T22:26:01.623Z,101202.95
2018-09-19T22:28:31.168Z,101201.84
2018-09-19T22:31:00.112Z,101211.38
2018-09-19T22:33:29.143Z,101208.61
2018-09-19T22:35:58.032Z,101210.27
2018-09-19T22:38:26.925Z,101204.44
2018-09-19T22:40:55.886Z,101214.91
2018-09-19T22:43:24.822Z,101209.84
2018-09-19T22:45:53.688Z,101208.80
2018-09-19T22:48:22.626Z,101207.28
2018-09-19T22:50:51.547Z,101205.23
2018-09-19T22:53:20.812Z,101213.47
2018-09-19T22:55:49.839Z,101208.22
2018-09-19T22:58:18.725Z,101211.16
2018-09-19T23:00:47.717Z,101209.87
2018-09-19T23:03:16.603Z,101212.93
2018-09-19T23:05:45.657Z,101209.30
2018-09-19T23:08:14.557Z,101205.53
2018-09-19T23:10:43.444Z,101206.36
2018-09-19T23:13:12.327Z,101206.31
2018-09-19T23:15:41.219Z,101208.10
2018-09-19T23:18:10.300Z,101206.55
2018-09-19T23:20:39.193Z,101208.10
2018-09-19T23:23:08.106Z,101212.80
2018-09-19T23:25:36.996Z,101206.23
2018-09-19T23:28:05.944Z,101207.16
2018-09-19T23:30:34.929Z,101208.61
2018-09-19T23:33:03.929Z,101205.34
2018-09-19T23:35:32.911Z,101210.13
2018-09-19T23:38:01.879Z,101208.67
2018-09-19T23:40:30.803Z,101214.73
2018-09-19T23:42:59.730Z,101212.89
2018-09-19T23:45:28.643Z,101206.64
2018-09-19T23:47:57.559Z,101206.35
2018-09-19T23:50:26.471Z,101206.44
2018-09-19T23:52:55.378Z,101210.16
2018-09-19T23:55:24.271Z,101208.45
2018-09-19T23:57:53.219Z,101203.88
